KLIT

Bill and Hillary Clinton National/Adams Field Airport

Little Rock, Arkansas, USA
METAR KLIT 180253Z 12003KT 2 1/2SM -DZ BR OVC004 07/07 A3014 RMK AO2 SLP209 P0000 60000 T00720072 50008 $
Observed Flight Rules
Dec-18 @ 02:53 UTC (22 minutes ago) Instrument Flight Rules
Wind Visibility Clouds Conditions
120° at 3 knots 2 1/2 miles
  • Overcast at 400' AGL
  • Light Drizzle
  • Mist
Temperatures Readings Precipitation
Current 7°C / 45°F
Dewpoint 7°C / 45°F
Humidity 100%
Altimeter 30.14" Hg
Pressure 1020.9 hPa
Elevation 79
Current Rain 0.005
METAR KLIT 180253Z 12003KT 2 1/2SM -DZ BR OVC004 07/07 A3014 RMK AO2 SLP209 P0000 60000 T00720072 50008 $
Observed Flight Rules
Dec-18 @ 02:53 UTC
(22 minutes ago)
LIFR
Wind Visibility
120° at 3 knots 2 1/2 miles
Clouds
  • Overcast at 400' AGL
Conditions
  • Light Drizzle
  • Mist
Temperature Dewpoint
7°C / 45°F 7°C / 45°F
Humidity Altimeter Pressure
100% 30.14" Hg 1020.9 hPa
Current Rain
0.005